Time;durP1;ratioP1;P1;durP2;ratioP2;P2;SDS_P1;SDS_P2;PMS_P1;PMS_P2;Temp;Humidity;BMP_temperature;BMP_pressure;BME280_temperature;BME280_humidity;BME280_pressure;Samples;Min_cycle;Max_cycle;Signal;HPM_P1;HPM_P2
2022/07/24 00:00:22;;;;;;;11.27;10.27;;;;;;;21.80;87.19;98445.78;5068743;28;20699;-68
2022/07/24 00:02:48;;;;;;;11.27;10.27;;;;;;;21.79;87.17;98444.97;5070778;28;20211;-67
2022/07/24 00:05:15;;;;;;;11.20;10.20;;;;;;;21.76;86.99;98447.97;5070689;28;20218;-67
2022/07/24 00:07:41;;;;;;;11.67;10.57;;;;;;;21.70;87.61;98447.81;5070213;28;20587;-67
2022/07/24 00:10:09;;;;;;;12.40;11.30;;;;;;;21.63;88.43;98446.78;5068188;28;20220;-67
2022/07/24 00:12:38;;;;;;;12.17;10.97;;;;;;;21.59;88.52;98457.00;5071444;28;20234;-67
2022/07/24 00:15:05;;;;;;;12.00;10.90;;;;;;;21.56;88.64;98457.34;5071293;28;20216;-67
2022/07/24 00:17:32;;;;;;;12.33;11.13;;;;;;;21.48;89.11;98454.66;5069607;28;20247;-67
2022/07/24 00:19:58;;;;;;;12.37;11.17;;;;;;;21.39;90.04;98452.13;5068218;28;20220;-67
2022/07/24 00:22:25;;;;;;;11.93;10.90;;;;;;;21.33;90.23;98455.47;5071471;28;20239;-68
2022/07/24 00:24:52;;;;;;;11.77;10.63;;;;;;;21.27;90.79;98451.59;5070962;28;20219;-67
2022/07/24 00:27:18;;;;;;;12.37;11.17;;;;;;;21.25;91.24;98458.97;5070293;28;20218;-67
2022/07/24 00:29:46;;;;;;;12.03;10.90;;;;;;;21.23;91.34;98452.94;5065979;28;20212;-67
2022/07/24 00:32:12;;;;;;;12.90;11.53;;;;;;;21.21;91.19;98457.63;5070742;28;20216;-67
2022/07/24 00:34:39;;;;;;;12.20;11.00;;;;;;;21.18;92.23;98447.22;5070468;28;20212;-67
2022/07/24 00:37:05;;;;;;;12.27;11.17;;;;;;;21.00;93.36;98459.94;5067807;28;20215;-67
2022/07/24 00:39:32;;;;;;;13.17;11.87;;;;;;;20.83;94.38;98452.78;5067524;28;20220;-67
2022/07/24 00:41:58;;;;;;;12.80;11.53;;;;;;;20.71;95.16;98454.06;5047481;28;20235;-70
2022/07/24 00:44:25;;;;;;;12.60;11.47;;;;;;;20.64;95.63;98453.03;5070599;28;20688;-68
2022/07/24 00:46:53;;;;;;;12.93;11.73;;;;;;;20.55;96.36;98453.97;5070844;28;20583;-67
2022/07/24 00:49:20;;;;;;;12.63;11.47;;;;;;;20.44;96.55;98448.06;5062940;28;20231;-68
2022/07/24 00:51:49;;;;;;;12.23;11.03;;;;;;;20.44;97.07;98451.59;5070531;28;20211;-67
2022/07/24 00:54:18;;;;;;;12.93;11.73;;;;;;;20.44;97.87;98451.59;5070486;28;20218;-67
2022/07/24 00:56:47;;;;;;;13.03;11.73;;;;;;;20.34;98.51;98448.16;5068735;28;20215;-67
2022/07/24 00:59:14;;;;;;;13.93;12.63;;;;;;;20.30;98.75;98454.84;5064418;28;20246;-67
2022/07/24 01:01:41;;;;;;;14.90;13.43;;;;;;;20.28;98.30;98456.00;5070296;28;20218;-67
2022/07/24 01:04:10;;;;;;;14.93;13.50;;;;;;;20.23;98.94;98451.13;5070145;28;20219;-67
2022/07/24 01:06:37;;;;;;;16.10;14.50;;;;;;;20.21;99.49;98453.13;5069759;28;20627;-68
2022/07/24 01:09:04;;;;;;;14.83;13.43;;;;;;;20.13;99.93;98447.72;5066665;28;20226;-67
2022/07/24 01:11:31;;;;;;;15.00;13.53;;;;;;;19.99;100.00;98450.91;5070032;28;20214;-67
2022/07/24 01:13:57;;;;;;;14.70;13.20;;;;;;;19.89;100.00;98452.88;5070251;28;20207;-67
2022/07/24 01:16:24;;;;;;;15.37;13.87;;;;;;;19.78;100.00;98450.44;5069888;28;20216;-67
2022/07/24 01:18:50;;;;;;;16.10;14.50;;;;;;;19.72;100.00;98459.09;5066353;28;20326;-67
2022/07/24 01:21:18;;;;;;;15.80;14.33;;;;;;;19.65;100.00;98451.81;5064214;28;20248;-68
2022/07/24 01:23:45;;;;;;;15.60;14.10;;;;;;;19.63;100.00;98451.97;5054655;28;20216;-68
2022/07/24 01:26:11;;;;;;;14.67;13.37;;;;;;;19.64;100.00;98448.28;5065869;28;20687;-67
2022/07/24 01:28:38;;;;;;;15.10;13.70;;;;;;;19.64;100.00;98445.59;5061544;28;20212;-67
2022/07/24 01:31:04;;;;;;;14.60;13.20;;;;;;;19.62;100.00;98444.91;5069350;28;20215;-67
2022/07/24 01:33:31;;;;;;;15.60;14.10;;;;;;;19.61;100.00;98448.59;5069819;28;20222;-67
2022/07/24 01:35:58;;;;;;;15.47;13.90;;;;;;;19.58;100.00;98445.41;5069917;28;20211;-68
2022/07/24 01:38:25;;;;;;;15.43;13.93;;;;;;;19.57;100.00;98449.06;5056204;28;20236;-67
2022/07/24 01:40:52;;;;;;;14.90;13.40;;;;;;;19.52;100.00;98452.19;5068961;28;20211;-67
2022/07/24 01:43:18;;;;;;;14.70;13.20;;;;;;;19.47;100.00;98450.97;5070050;28;20212;-67
2022/07/24 01:45:45;;;;;;;15.53;14.03;;;;;;;19.40;100.00;98458.81;5068930;28;20226;-67
2022/07/24 01:48:12;;;;;;;14.43;13.00;;;;;;;19.39;100.00;98448.22;5064695;28;20220;-67
2022/07/24 01:50:38;;;;;;;15.40;13.90;;;;;;;19.35;100.00;98445.03;5068180;28;20212;-67
2022/07/24 01:53:05;;;;;;;15.73;14.23;;;;;;;19.27;100.00;98447.59;5069193;28;20207;-67
2022/07/24 01:55:33;;;;;;;16.23;14.53;;;;;;;19.16;100.00;98444.28;5069513;28;20211;-67
2022/07/24 01:57:59;;;;;;;15.30;13.90;;;;;;;19.13;100.00;98455.31;5066635;28;20231;-67
2022/07/24 02:00:26;;;;;;;16.37;14.77;;;;;;;19.10;100.00;98450.25;5067444;28;20681;-67
2022/07/24 02:02:52;;;;;;;15.00;13.43;;;;;;;19.01;100.00;98446.63;5069076;28;20676;-67
2022/07/24 02:05:19;;;;;;;15.27;13.80;;;;;;;18.99;100.00;98447.78;5069296;28;20241;-67
2022/07/24 02:07:45;;;;;;;15.53;13.80;;;;;;;18.98;100.00;98446.94;5067003;28;20237;-67
2022/07/24 02:10:14;;;;;;;14.60;13.20;;;;;;;18.93;100.00;98449.22;5067337;28;20216;-67
2022/07/24 02:12:42;;;;;;;14.77;13.37;;;;;;;18.87;100.00;98436.44;5069095;28;20211;-67
2022/07/24 02:15:10;;;;;;;15.57;14.00;;;;;;;18.82;100.00;98441.38;5057479;28;20601;-67
2022/07/24 02:17:36;;;;;;;15.07;13.57;;;;;;;18.76;100.00;98430.41;5065184;28;20215;-67
2022/07/24 02:20:03;;;;;;;15.27;13.77;;;;;;;18.73;100.00;98434.28;5066872;28;20212;-67
2022/07/24 02:22:30;;;;;;;16.37;14.67;;;;;;;18.67;100.00;98434.88;5068439;28;20242;-67
2022/07/24 02:24:57;;;;;;;14.87;13.37;;;;;;;18.70;100.00;98447.09;5068914;28;20241;-67
2022/07/24 02:27:23;;;;;;;15.13;13.73;;;;;;;18.70;100.00;98442.59;5066897;28;20310;-67
2022/07/24 02:29:51;;;;;;;16.37;14.67;;;;;;;18.65;100.00;98447.53;5066394;28;20208;-67
2022/07/24 02:32:17;;;;;;;16.23;14.53;;;;;;;18.64;100.00;98448.53;5068779;28;20242;-67
2022/07/24 02:34:44;;;;;;;15.97;14.37;;;;;;;18.64;100.00;98439.66;5068862;28;20215;-69
2022/07/24 02:37:10;;;;;;;15.13;13.63;;;;;;;18.62;100.00;98445.16;5065389;28;20212;-69
2022/07/24 02:39:37;;;;;;;15.97;14.27;;;;;;;18.62;100.00;98445.16;5064164;28;20600;-68
2022/07/24 02:42:04;;;;;;;14.40;13.00;;;;;;;18.59;100.00;98444.63;5068640;28;20222;-68
2022/07/24 02:44:30;;;;;;;15.43;13.93;;;;;;;18.61;100.00;98438.13;5068496;28;20564;-68
2022/07/24 02:46:58;;;;;;;14.70;13.20;;;;;;;18.62;100.00;98450.53;5067738;28;20217;-68
2022/07/24 02:49:25;;;;;;;15.57;13.97;;;;;;;18.61;100.00;98448.84;5065206;28;20673;-68
2022/07/24 02:51:51;;;;;;;15.13;13.63;;;;;;;18.57;100.00;98442.09;5068576;28;20222;-68
2022/07/24 02:54:18;;;;;;;14.93;13.53;;;;;;;18.51;100.00;98437.31;5068588;28;20222;-68
2022/07/24 02:56:44;;;;;;;15.10;13.57;;;;;;;18.47;100.00;98448.47;5068062;28;20215;-68
2022/07/24 02:59:11;;;;;;;15.50;14.00;;;;;;;18.42;100.00;98437.38;5064595;28;20236;-68
2022/07/24 03:01:37;;;;;;;14.93;13.27;;;;;;;18.34;100.00;98443.44;5068239;28;20222;-68
2022/07/24 03:04:05;;;;;;;15.07;13.57;;;;;;;18.35;100.00;98446.97;5068324;28;20211;-68
2022/07/24 03:06:32;;;;;;;14.83;13.43;;;;;;;18.37;100.00;98445.84;5066170;28;20219;-67
2022/07/24 03:08:58;;;;;;;15.23;13.73;;;;;;;18.38;100.00;98441.31;5064326;28;20306;-69
2022/07/24 03:11:25;;;;;;;15.50;13.90;;;;;;;18.35;100.00;98447.81;5068039;28;20692;-69
2022/07/24 03:13:51;;;;;;;15.73;14.17;;;;;;;18.30;100.00;98444.69;5067976;28;20251;-69
2022/07/24 03:16:18;;;;;;;14.97;13.47;;;;;;;18.28;100.00;98446.69;5068201;28;20222;-69
2022/07/24 03:18:48;;;;;;;15.27;13.67;;;;;;;18.28;100.00;98446.69;5064571;28;20630;-69
2022/07/24 03:21:17;;;;;;;15.23;13.73;;;;;;;18.28;100.00;98446.69;5067893;28;20269;-69
2022/07/24 03:23:43;;;;;;;15.63;14.13;;;;;;;18.28;100.00;98440.50;5068229;28;20580;-68
2022/07/24 03:26:11;;;;;;;15.90;14.30;;;;;;;18.24;100.00;98450.63;5068114;28;20641;-69
2022/07/24 03:28:37;;;;;;;15.43;13.83;;;;;;;18.21;100.00;98444.72;5064582;28;20215;-68
2022/07/24 03:31:04;;;;;;;15.40;13.70;;;;;;;18.18;100.00;98443.22;5056809;28;20226;-68
2022/07/24 03:33:31;;;;;;;16.20;14.60;;;;;;;18.13;100.00;98447.28;5067789;28;20215;-68
2022/07/24 03:35:57;;;;;;;15.77;14.27;;;;;;;18.13;100.00;98448.16;5068263;28;20586;-68
2022/07/24 03:38:25;;;;;;;15.13;13.57;;;;;;;18.15;100.00;98447.97;5054518;28;20239;-68
2022/07/24 03:40:52;;;;;;;15.47;13.93;;;;;;;18.19;100.00;98442.22;5067500;28;20219;-68
2022/07/24 03:43:18;;;;;;;16.30;14.60;;;;;;;18.18;100.00;98445.88;5067868;28;20211;-68
2022/07/24 03:45:45;;;;;;;16.07;14.53;;;;;;;18.15;100.00;98448.84;5067825;28;20211;-68
2022/07/24 03:48:12;;;;;;;15.87;14.33;;;;;;;18.13;100.00;98447.28;5064638;28;20212;-67
2022/07/24 03:50:38;;;;;;;16.40;14.80;;;;;;;18.14;100.00;98449.84;5066987;28;20216;-67
2022/07/24 03:53:05;;;;;;;16.20;14.50;;;;;;;18.16;100.00;98450.53;5067785;28;20214;-67
2022/07/24 03:55:33;;;;;;;15.23;13.83;;;;;;;18.19;100.00;98452.91;5067845;28;20211;-67
2022/07/24 03:57:59;;;;;;;15.50;14.00;;;;;;;18.20;100.00;98454.59;5063240;28;20216;-67
2022/07/24 04:00:26;;;;;;;17.23;15.30;;;;;;;18.16;100.00;98450.53;5066257;28;20220;-68
2022/07/24 04:02:52;;;;;;;16.47;14.87;;;;;;;18.11;100.00;98451.97;5067661;28;20214;-68
2022/07/24 04:05:19;;;;;;;16.77;15.13;;;;;;;18.13;100.00;98468.69;5067673;28;20586;-67
2022/07/24 04:07:45;;;;;;;15.53;14.03;;;;;;;18.09;100.00;98461.94;5065329;28;20223;-67
2022/07/24 04:10:12;;;;;;;16.67;14.63;;;;;;;18.12;100.00;98467.00;5069597;28;20318;-66
2022/07/24 04:12:40;;;;;;;17.13;15.33;;;;;;;18.10;100.00;98475.19;5071424;28;20207;-67
2022/07/24 04:15:08;;;;;;;17.43;15.63;;;;;;;18.13;100.00;98464.19;5071000;28;20217;-67
2022/07/24 04:17:38;;;;;;;16.43;14.87;;;;;;;18.16;100.00;98463.91;5068963;28;20626;-67
2022/07/24 04:20:07;;;;;;;15.43;13.93;;;;;;;18.20;100.00;98475.16;5069827;28;20246;-67
2022/07/24 04:22:33;;;;;;;16.57;14.87;;;;;;;18.25;100.00;98479.09;5071411;28;20596;-66
2022/07/24 04:25:00;;;;;;;16.17;14.57;;;;;;;18.30;100.00;98468.78;5069261;28;20245;-67
2022/07/24 04:27:26;;;;;;;16.37;14.77;;;;;;;18.35;100.00;98474.56;5068150;28;20223;-69
2022/07/24 04:29:54;;;;;;;14.93;13.43;;;;;;;18.39;100.00;98475.13;5068980;28;20208;-67
2022/07/24 04:32:21;;;;;;;15.90;14.23;;;;;;;18.45;100.00;98480.75;5070807;28;20683;-67
2022/07/24 04:34:47;;;;;;;16.10;14.57;;;;;;;18.49;100.00;98483.97;5070781;28;20214;-67
2022/07/24 04:37:14;;;;;;;15.03;13.53;;;;;;;18.57;100.00;98481.38;5067019;28;20697;-67
2022/07/24 04:39:40;;;;;;;15.30;13.77;;;;;;;18.67;100.00;98479.53;5068717;28;20247;-67
2022/07/24 04:42:07;;;;;;;16.53;14.60;;;;;;;18.73;100.00;98479.78;5070632;28;20218;-68
2022/07/24 04:44:33;;;;;;;15.53;14.03;;;;;;;18.77;100.00;98481.16;5065048;28;20208;-68
2022/07/24 04:47:01;;;;;;;14.97;13.57;;;;;;;18.83;100.00;98483.25;5067016;28;20215;-67
2022/07/24 04:49:28;;;;;;;15.67;14.07;;;;;;;18.98;100.00;98479.09;5066561;28;20234;-69
2022/07/24 04:51:54;;;;;;;14.70;13.33;;;;;;;19.24;100.00;98485.44;5070484;28;20356;-67
2022/07/24 04:54:21;;;;;;;14.93;13.60;;;;;;;19.35;100.00;98482.53;5070718;28;20221;-68
2022/07/24 04:56:47;;;;;;;14.97;13.40;;;;;;;19.41;100.00;98487.31;5069342;28;20211;-68
2022/07/24 04:59:14;;;;;;;15.33;13.57;;;;;;;19.46;100.00;98485.00;5067457;28;20236;-69
2022/07/24 05:01:40;;;;;;;16.13;14.43;;;;;;;19.58;100.00;98494.47;5070703;28;20309;-69
2022/07/24 05:04:08;;;;;;;15.90;14.37;;;;;;;19.60;100.00;98495.19;5070435;28;20244;-69
2022/07/24 05:06:35;;;;;;;16.67;14.97;;;;;;;19.65;100.00;98492.91;5069139;28;20220;-68
2022/07/24 05:09:02;;;;;;;16.17;14.57;;;;;;;19.67;100.00;98503.44;5066744;28;20230;-69
2022/07/24 05:11:28;;;;;;;17.10;15.30;;;;;;;19.72;100.00;98498.47;5070235;28;20221;-68
2022/07/24 05:13:55;;;;;;;16.13;14.53;;;;;;;19.85;100.00;98502.47;5070190;28;20217;-69
2022/07/24 05:16:21;;;;;;;15.70;14.10;;;;;;;19.99;100.00;98509.94;5068220;28;20208;-69
2022/07/24 05:18:48;;;;;;;15.67;14.17;;;;;;;20.17;100.00;98507.28;5066378;28;20236;-69
2022/07/24 05:21:16;;;;;;;16.23;14.63;;;;;;;20.32;100.00;98501.19;5045933;28;20247;-68
2022/07/24 05:23:43;;;;;;;16.33;14.63;;;;;;;20.69;100.00;98509.81;5070350;28;20614;-69
2022/07/24 05:26:10;;;;;;;15.50;13.93;;;;;;;21.40;100.00;98504.91;5069450;28;20219;-69
2022/07/24 05:28:37;;;;;;;15.13;13.53;;;;;;;22.20;95.43;98508.53;5066545;28;20219;-69
2022/07/24 05:31:03;;;;;;;14.23;12.80;;;;;;;22.91;90.95;98504.03;5069681;28;20211;-67
2022/07/24 05:33:30;;;;;;;14.53;13.10;;;;;;;23.52;85.39;98512.19;5069742;28;20223;-68
2022/07/24 05:35:57;;;;;;;13.67;12.27;;;;;;;23.82;81.89;98513.16;5069683;28;20223;-68
2022/07/24 05:38:25;;;;;;;14.17;12.77;;;;;;;24.32;79.10;98500.81;5052076;28;20208;-68
2022/07/24 05:40:51;;;;;;;13.83;12.47;;;;;;;24.96;76.44;98500.16;5069042;28;20239;-68
2022/07/24 05:43:18;;;;;;;14.03;12.53;;;;;;;25.46;73.96;98492.09;5068346;28;20233;-68
2022/07/24 05:45:45;;;;;;;14.37;12.90;;;;;;;25.88;71.52;98494.84;5069485;28;20226;-68
2022/07/24 05:48:11;;;;;;;13.53;12.23;;;;;;;26.34;69.14;98500.72;5065940;28;20221;-67
2022/07/24 05:50:38;;;;;;;12.90;11.53;;;;;;;26.74;66.89;98500.00;5068720;28;20219;-67
2022/07/24 05:53:04;;;;;;;12.17;11.03;;;;;;;27.05;65.24;98503.94;5069538;28;20580;-67
2022/07/24 05:55:32;;;;;;;12.97;11.77;;;;;;;27.33;64.07;98503.91;5069426;28;20216;-67
2022/07/24 05:57:58;;;;;;;13.50;12.17;;;;;;;27.56;62.40;98503.38;5065992;28;20681;-66
2022/07/24 06:00:25;;;;;;;12.33;11.03;;;;;;;27.80;61.10;98493.84;5062204;28;20235;-66
2022/07/24 06:02:51;;;;;;;11.77;10.67;;;;;;;28.06;60.39;98502.06;5069015;28;20220;-66
2022/07/24 06:05:18;;;;;;;12.67;11.57;;;;;;;28.40;59.52;98496.47;5069327;28;20233;-66
2022/07/24 06:07:45;;;;;;;12.77;11.57;;;;;;;28.68;58.02;98502.53;5064937;28;20217;-65
2022/07/24 06:10:12;;;;;;;10.97;9.97;;;;;;;28.98;56.30;98499.13;5067477;28;20215;-69
2022/07/24 06:12:40;;;;;;;10.93;10.03;;;;;;;29.18;55.63;98496.38;5069337;28;20217;-68
2022/07/24 06:15:07;;;;;;;11.50;10.50;;;;;;;29.29;54.80;98504.69;5069180;28;20216;-69
2022/07/24 06:17:34;;;;;;;12.00;11.00;;;;;;;29.54;53.49;98502.13;5066564;28;20229;-69
2022/07/24 06:20:00;;;;;;;11.10;10.10;;;;;;;29.80;53.34;98504.72;5066939;28;20247;-70
2022/07/24 06:22:27;;;;;;;12.15;11.05;;;;;;;29.97;51.79;98508.59;5069213;28;20258;-69
2022/07/24 06:24:54;;;;;;;12.13;11.07;;;;;;;30.07;51.51;98509.78;5069055;28;20221;-69
2022/07/24 06:27:21;;;;;;;11.65;10.48;;;;;;;30.19;50.92;98504.50;5066889;28;20215;-69
2022/07/24 06:29:49;;;;;;;10.65;9.65;;;;;;;30.42;50.31;98504.72;5066555;28;20270;-69
2022/07/24 06:32:15;;;;;;;10.60;9.70;;;;;;;30.56;49.43;98509.03;5068348;28;20218;-69
2022/07/24 06:34:42;;;;;;;11.50;10.50;;;;;;;30.71;48.88;98517.72;5066999;28;20215;-69
2022/07/24 06:37:08;;;;;;;11.25;10.25;;;;;;;30.65;48.67;98521.34;5065933;28;20212;-69
2022/07/24 06:39:35;;;;;;;11.55;10.35;;;;;;;30.73;47.56;98510.13;5065746;28;20705;-69
2022/07/24 06:42:01;;;;;;;10.52;9.63;;;;;;;30.80;47.90;98510.94;5068527;28;20211;-70
2022/07/24 06:44:28;;;;;;;11.77;10.77;;;;;;;30.93;48.55;98505.34;5068310;28;20231;-69
2022/07/24 06:46:56;;;;;;;11.18;10.07;;;;;;;30.97;47.70;98506.53;5067040;28;20216;-69
2022/07/24 06:49:22;;;;;;;10.73;9.82;;;;;;;30.85;48.19;98502.88;5065340;28;20669;-69
2022/07/24 06:51:49;;;;;;;10.57;9.57;;;;;;;30.81;47.72;98498.97;5068258;28;20279;-69
2022/07/24 06:54:16;;;;;;;11.23;10.13;;;;;;;30.77;48.20;98505.91;5068251;28;20672;-69
2022/07/24 06:56:42;;;;;;;11.27;10.27;;;;;;;30.75;48.41;98503.41;5067601;28;20276;-69
2022/07/24 06:59:09;;;;;;;10.93;10.00;;;;;;;30.54;48.97;98506.50;5063949;28;20226;-70
2022/07/24 07:01:35;;;;;;;11.75;10.63;;;;;;;30.16;49.62;98504.94;5067833;28;20306;-68
2022/07/24 07:04:03;;;;;;;10.63;9.63;;;;;;;29.44;51.33;98498.97;5068496;28;20211;-69
2022/07/24 07:06:30;;;;;;;11.88;10.77;;;;;;;28.41;54.96;98485.38;5067877;28;20221;-69
2022/07/24 07:08:56;;;;;;;11.35;10.35;;;;;;;27.48;58.68;98504.63;5064856;28;20214;-69
2022/07/24 07:11:23;;;;;;;11.45;10.45;;;;;;;26.84;61.16;98509.47;5068418;28;20215;-69
2022/07/24 07:13:49;;;;;;;11.25;10.27;;;;;;;26.52;63.26;98504.59;5068362;28;20207;-69
2022/07/24 07:16:16;;;;;;;12.00;10.80;;;;;;;26.17;61.86;98502.88;5060996;28;20207;-70
2022/07/24 07:18:42;;;;;;;11.48;10.38;;;;;;;26.09;63.70;98499.47;5064554;28;20219;-69
2022/07/24 07:21:10;;;;;;;11.30;10.23;;;;;;;25.95;63.90;98498.47;5067525;28;20243;-69
2022/07/24 07:23:37;;;;;;;10.30;9.30;;;;;;;25.86;63.84;98509.59;5067549;28;20213;-69
2022/07/24 07:26:03;;;;;;;10.53;9.53;;;;;;;25.95;64.67;98503.91;5065523;28;20218;-69
2022/07/24 07:28:30;;;;;;;10.27;9.30;;;;;;;26.06;61.76;98495.25;5063677;28;20213;-70
2022/07/24 07:30:56;;;;;;;10.43;9.43;;;;;;;26.05;63.17;98498.16;5066287;28;20699;-69
2022/07/24 07:33:23;;;;;;;10.30;9.30;;;;;;;25.92;62.68;98504.28;5066934;28;20302;-71
2022/07/24 07:35:50;;;;;;;10.63;9.73;;;;;;;26.04;62.45;98505.44;5067667;28;20238;-69
2022/07/24 07:38:18;;;;;;;10.55;9.45;;;;;;;26.10;63.63;98496.53;5054917;28;20587;-71
2022/07/24 07:40:44;;;;;;;10.48;9.50;;;;;;;26.17;64.32;98497.47;5066124;28;20323;-72
2022/07/24 07:43:11;;;;;;;10.47;9.47;;;;;;;26.30;63.19;98516.53;5067408;28;20731;-70
2022/07/24 07:45:38;;;;;;;9.20;8.35;;;;;;;26.42;63.20;98512.25;5070859;28;20214;-71
2022/07/24 07:48:05;;;;;;;9.47;8.47;;;;;;;26.62;60.35;98505.13;5068221;28;20222;-70
2022/07/24 07:50:32;;;;;;;8.43;7.68;;;;;;;26.67;56.46;98504.53;5069507;28;20226;-70
2022/07/24 07:52:58;;;;;;;10.07;9.07;;;;;;;26.66;57.14;98503.72;5069194;28;20220;-71
2022/07/24 07:55:26;;;;;;;9.00;8.20;;;;;;;26.73;56.91;98509.16;5067171;28;20207;-71
2022/07/24 07:57:52;;;;;;;8.40;7.70;;;;;;;26.75;53.43;98507.13;5064486;28;20591;-71
2022/07/24 08:00:19;;;;;;;8.68;7.82;;;;;;;26.58;54.10;98500.31;5066199;28;20235;-71
2022/07/24 08:02:46;;;;;;;8.52;7.68;;;;;;;26.55;54.55;98501.53;5069084;28;20325;-71
2022/07/24 08:05:13;;;;;;;8.65;7.68;;;;;;;26.51;53.39;98502.94;5067988;28;20298;-71
2022/07/24 08:07:39;;;;;;;8.70;7.90;;;;;;;26.46;54.11;98508.09;5064847;28;20216;-71
2022/07/24 08:10:07;;;;;;;8.10;7.40;;;;;;;26.54;55.08;98504.44;5067065;28;20596;-71
2022/07/24 08:12:35;;;;;;;8.48;7.78;;;;;;;26.61;54.31;98503.47;5068635;28;20298;-71
2022/07/24 08:15:02;;;;;;;8.13;7.43;;;;;;;26.73;53.05;98504.59;5067978;28;20211;-71
2022/07/24 08:17:28;;;;;;;8.40;7.70;;;;;;;26.88;51.91;98510.72;5067564;28;20265;-71
2022/07/24 08:19:56;;;;;;;8.43;7.70;;;;;;;26.82;51.71;98502.56;5067049;28;20236;-71
2022/07/24 08:22:23;;;;;;;8.30;7.47;;;;;;;26.72;52.31;98496.66;5071347;28;20271;-71
2022/07/24 08:24:50;;;;;;;8.43;7.63;;;;;;;26.73;52.88;98496.47;5071153;28;20310;-71
2022/07/24 08:27:16;;;;;;;7.88;7.18;;;;;;;26.85;53.22;98494.88;5069297;28;20303;-71
2022/07/24 08:29:44;;;;;;;8.20;7.50;;;;;;;27.02;54.25;98488.09;5066314;28;20212;-71
2022/07/24 08:32:10;;;;;;;8.30;7.60;;;;;;;27.10;53.20;98491.44;5070686;28;20212;-71
2022/07/24 08:34:37;;;;;;;8.45;7.75;;;;;;;27.29;53.97;98500.75;5070895;28;20586;-71
2022/07/24 08:37:04;;;;;;;8.15;7.45;;;;;;;27.37;53.47;98491.63;5057007;28;20218;-71
2022/07/24 08:39:30;;;;;;;8.15;7.50;;;;;;;27.40;54.19;98486.63;5067933;28;20208;-71
2022/07/24 08:41:57;;;;;;;9.60;8.70;;;;;;;27.46;54.98;98485.81;5070802;28;20221;-70
2022/07/24 08:44:23;;;;;;;8.85;8.05;;;;;;;27.52;54.42;98482.28;5067522;28;20235;-71
2022/07/24 08:46:54;;;;;;;8.52;7.82;;;;;;;27.62;53.76;98479.97;5054743;28;20584;-69
2022/07/24 08:49:22;;;;;;;8.60;7.80;;;;;;;27.70;52.46;98477.91;5054881;28;20231;-70
2022/07/24 08:51:50;;;;;;;8.32;7.60;;;;;;;27.76;52.32;98473.56;5049537;28;20212;-69
2022/07/24 08:54:17;;;;;;;8.48;7.68;;;;;;;27.84;52.77;98484.25;5054749;28;20223;-68
2022/07/24 08:56:43;;;;;;;8.55;7.80;;;;;;;27.91;54.90;98490.53;5054454;28;20218;-66
2022/07/24 08:59:18;;;;;;;8.00;7.30;;;;;;;27.97;52.82;98484.28;5055491;28;20230;-65
2022/07/24 09:01:45;;;;;;;8.82;7.80;;;;;;;28.06;51.03;98480.34;5045070;28;20284;-67
2022/07/24 09:04:34;;;;;;;8.50;7.80;;;;;;;28.08;50.39;98483.66;5055162;28;20212;-66
2022/07/24 09:07:02;;;;;;;7.53;6.93;;;;;;;28.01;49.65;98475.50;5052241;28;20222;-66
2022/07/24 09:09:28;;;;;;;8.98;8.18;;;;;;;28.06;49.09;98478.44;5044997;28;20278;-66
2022/07/24 09:12:05;;;;;;;8.15;7.45;;;;;;;28.19;49.31;98483.06;5053489;28;20212;-66
2022/07/24 09:14:31;;;;;;;8.32;7.57;;;;;;;28.27;47.29;98477.41;5054484;28;20216;-66
2022/07/24 09:17:03;;;;;;;8.27;7.57;;;;;;;28.30;48.51;98479.72;5043822;28;20273;-66
2022/07/24 09:19:31;;;;;;;8.93;8.02;;;;;;;28.24;47.75;98480.56;5054643;28;20247;-66
2022/07/24 09:21:59;;;;;;;8.60;7.80;;;;;;;28.27;48.63;98489.13;5054401;28;20248;-66
2022/07/24 09:24:26;;;;;;;9.25;7.55;;;;;;;28.31;49.45;98492.28;5053854;28;20219;-66
2022/07/24 09:26:55;;;;;;;8.95;8.07;;;;;;;28.34;48.35;98480.97;5046333;28;20658;-66
2022/07/24 09:29:23;;;;;;;8.50;7.70;;;;;;;28.32;46.61;98483.06;5046464;28;20212;-67
2022/07/24 09:31:52;;;;;;;8.23;7.35;;;;;;;28.16;47.97;98478.88;5044445;28;20287;-69
2022/07/24 09:34:18;;;;;;;7.85;7.15;;;;;;;28.23;47.28;98484.28;5043983;28;20244;-68
2022/07/24 09:36:56;;;;;;;8.18;7.47;;;;;;;28.26;47.57;98473.03;5033998;28;20223;-67
2022/07/24 09:39:24;;;;;;;8.13;7.43;;;;;;;28.36;47.90;98476.16;5028126;28;20621;-68
2022/07/24 09:41:53;;;;;;;7.80;7.10;;;;;;;28.48;48.30;98478.06;5040485;28;20236;-67
2022/07/24 09:44:19;;;;;;;7.75;7.05;;;;;;;28.59;48.36;98479.28;5039586;28;20302;-66
2022/07/24 09:46:48;;;;;;;6.85;6.18;;;;;;;28.93;44.29;98473.59;5038971;28;20215;-67
2022/07/24 09:49:20;;;;;;;7.85;7.15;;;;;;;28.87;43.92;98466.28;5037408;28;20212;-67
2022/07/24 09:52:10;;;;;;;7.65;7.03;;;;;;;28.90;44.71;98472.13;5044428;28;20208;-68
2022/07/24 09:54:40;;;;;;;7.03;6.43;;;;;;;29.01;42.35;98465.22;5042871;28;20219;-67
2022/07/24 09:57:22;;;;;;;7.50;6.78;;;;;;;28.98;42.09;98468.38;5043305;28;20585;-65
2022/07/24 09:59:50;;;;;;;7.50;6.80;;;;;;;28.94;42.76;98454.34;5050412;28;20216;-65
2022/07/24 10:02:19;;;;;;;7.72;6.53;;;;;;;28.84;42.99;98461.25;5052631;28;20232;-68
2022/07/24 10:04:47;;;;;;;7.68;6.97;;;;;;;28.98;43.01;98462.94;5052063;28;20703;-64
2022/07/24 10:07:16;;;;;;;7.28;6.57;;;;;;;28.98;42.80;98468.38;5044862;28;20254;-67
2022/07/24 10:09:46;;;;;;;7.90;7.20;;;;;;;29.19;42.88;98462.66;5052315;28;20212;-67
2022/07/24 10:12:15;;;;;;;7.45;6.75;;;;;;;29.25;43.42;98459.06;5052332;28;20215;-65
2022/07/24 10:14:42;;;;;;;9.13;7.43;;;;;;;29.34;42.87;98446.88;5052507;28;20212;-65
2022/07/24 10:17:10;;;;;;;8.00;7.30;;;;;;;29.32;43.95;98449.81;5052368;28;20223;-65
2022/07/24 10:19:42;;;;;;;8.00;7.30;;;;;;;29.41;43.70;98450.41;5052068;28;20212;-67
2022/07/24 10:22:12;;;;;;;7.20;6.60;;;;;;;29.71;43.63;98444.19;5051010;28;20252;-67
2022/07/24 10:24:58;;;;;;;7.50;6.90;;;;;;;30.10;42.28;98448.56;5049442;28;20212;-65
2022/07/24 10:27:29;;;;;;;8.00;7.20;;;;;;;30.37;42.98;98439.13;5051338;28;20226;-64
2022/07/24 10:29:57;;;;;;;7.90;7.20;;;;;;;30.55;43.12;98447.31;5051589;28;20222;-64
2022/07/24 10:32:25;;;;;;;7.95;7.15;;;;;;;30.68;42.68;98449.97;5051766;28;20713;-65
2022/07/24 10:35:02;;;;;;;7.97;7.22;;;;;;;30.83;42.24;98436.78;5050366;28;20262;-64
2022/07/24 10:37:38;;;;;;;7.47;6.88;;;;;;;30.98;41.78;98442.72;5044222;28;20212;-64
2022/07/24 10:40:12;;;;;;;8.25;7.55;;;;;;;31.16;43.63;98434.47;5051853;28;20212;-64
2022/07/24 10:43:13;;;;;;;8.02;7.28;;;;;;;30.89;42.03;98433.13;5047166;28;20211;-64
2022/07/24 10:45:41;;;;;;;7.53;6.82;;;;;;;30.79;40.84;98438.28;5044681;28;20216;-64
2022/07/24 10:48:36;;;;;;;7.97;7.28;;;;;;;30.49;40.29;98437.28;5052078;28;20212;-66
2022/07/24 10:51:08;;;;;;;7.78;7.07;;;;;;;30.38;40.22;98435.31;5016716;28;20212;-64
2022/07/24 10:53:47;;;;;;;7.75;7.05;;;;;;;30.30;40.67;98427.41;5051988;28;20592;-64
2022/07/24 10:56:18;;;;;;;7.53;6.93;;;;;;;30.10;40.72;98426.75;5051935;28;20561;-65
2022/07/24 10:58:55;;;;;;;7.80;7.10;;;;;;;29.96;39.83;98425.16;5051722;28;20216;-66
2022/07/24 11:01:33;;;;;;;8.63;7.30;;;;;;;30.02;41.30;98429.72;5050444;28;20242;-64
2022/07/24 11:04:00;;;;;;;7.47;6.88;;;;;;;29.91;40.97;98424.97;5051922;28;20226;-64
2022/07/24 11:06:41;;;;;;;7.90;6.78;;;;;;;29.71;40.65;98416.94;5051648;28;20661;-64
2022/07/24 11:09:08;;;;;;;7.53;6.82;;;;;;;29.77;42.71;98418.78;5043536;28;20219;-64
2022/07/24 11:11:41;;;;;;;7.90;7.22;;;;;;;29.98;43.07;98420.31;5051897;28;20215;-64
2022/07/24 11:14:08;;;;;;;7.65;7.00;;;;;;;30.10;41.95;98415.84;5047003;28;20211;-64
2022/07/24 11:16:36;;;;;;;8.02;7.32;;;;;;;30.35;41.30;98413.94;5051413;28;20222;-65
2022/07/24 11:19:31;;;;;;;8.02;7.28;;;;;;;30.42;41.42;98410.09;5054243;28;20222;-65
2022/07/24 11:22:12;;;;;;;7.35;6.65;;;;;;;30.42;42.23;98409.25;5050291;28;20743;-64